Pagrindinis puslapis
METAR-TAF:

METAR-TAF

Oro uostai :

Zadaras, Kroatija

platuma: 44-06N, ilguma: 015-21E, Aukštis: 82 m

Dabartinis oras

Ataskaita buvo paskelbta 31 minutes, ne 23:30 UTC
Ramus vėjas
Temperatūra 7°C
Drėgmė 45%
Slėgis 1027 hPa
Matomumas 10 km arba daugiau
nėra debesų žemiau 1500 m ir nėra kamuolinių lietaus debesų

METAR: LDZD 072330Z 00000KT CAVOK 07/M04 Q1027

Laikas: 02:01 (00:01 UTC)

Prognozė

Ataskaita buvo paskelbta 36 minutes, ne 23:25 UTC
Prognozė galioja nuo 08 metu 00 UTC su 09 metu 00 UTC
Vėjas 2 kt nuo kintamojo kryptimis
Matomumas 10 km arba daugiau
nėra debesų žemiau 1500 m ir nėra kamuolinių lietaus debesų
Tikimybė 30% :
Laikinai
nuo 08 metu 00 UTC su 08 metu 09 UTC
Vėjas 12 kt iš Rytų/Šiaurės Rytų
Tapsmas
nuo 08 metu 11 UTC su 08 metu 13 UTC
Vėjas 12 kt iš Vakarų
Tapsmas
nuo 08 metu 16 UTC su 08 metu 18 UTC
Vėjas 2 kt nuo kintamojo kryptimis

TAF: LDZD 072325Z 0800/0900 VRB02KT CAVOK TX23/0812Z TN04/0804Z PROB30 TEMPO 0800/0809 06012KT BECMG 0811/0813 27012KT BECMG 0816/0818 VRB02KT

Orai ataskaitas ir orų prognozės (METAR, TAF).

turimą stotys yra geltonos ir raudonos taškus žemėlapyje.

Perkelti pele per norėdami pamatyti stoties vardą.

Tada spustelėkite, norėdami matyti oro stebėjimo ir prognozės.

Norėdami pakeisti žemėlapį: spustelėkite ant žalios mygtukų su juodo kryžiaus žemyn,; žalią mygtuką su brūkšneliu, jei norite nutolinti; arba žalių rodyklių gretimoms žemėlapius.


METAR-TAF: